sensor_id;sensor_type;location;lat;lon;timestamp;pressure;altitude;pressure_sealevel;temperature;humidity
7832;BME280;3961;42.058;25.586;2022-09-01T00:01:41;64657.78;;;21.47;100.00
7832;BME280;3961;42.058;25.586;2022-09-01T00:04:10;64655.09;;;21.47;100.00
7832;BME280;3961;42.058;25.586;2022-09-01T00:06:37;64640.28;;;21.32;100.00
7832;BME280;3961;42.058;25.586;2022-09-01T00:09:07;64642.25;;;21.36;100.00
7832;BME280;3961;42.058;25.586;2022-09-01T00:11:34;64637.22;;;21.34;100.00
7832;BME280;3961;42.058;25.586;2022-09-01T00:14:01;64616.09;;;21.08;100.00
7832;BME280;3961;42.058;25.586;2022-09-01T00:16:27;64640.28;;;21.32;100.00
7832;BME280;3961;42.058;25.586;2022-09-01T00:18:54;64633.03;;;21.23;100.00
7832;BME280;3961;42.058;25.586;2022-09-01T00:21:32;64636.19;;;21.28;100.00
7832;BME280;3961;42.058;25.586;2022-09-01T00:23:59;64628.00;;;21.21;100.00
7832;BME280;3961;42.058;25.586;2022-09-01T00:26:25;64626.47;;;21.22;100.00
7832;BME280;3961;42.058;25.586;2022-09-01T00:28:50;64634.06;;;21.29;100.00
7832;BME280;3961;42.058;25.586;2022-09-01T00:31:17;64636.19;;;21.28;100.00
7832;BME280;3961;42.058;25.586;2022-09-01T00:33:46;64636.19;;;21.28;100.00
7832;BME280;3961;42.058;25.586;2022-09-01T00:36:13;64637.13;;;21.27;100.00
7832;BME280;3961;42.058;25.586;2022-09-01T00:38:39;64619.44;;;21.16;100.00
7832;BME280;3961;42.058;25.586;2022-09-01T00:41:04;64618.84;;;21.16;100.00
7832;BME280;3961;42.058;25.586;2022-09-01T00:43:38;64620.38;;;21.14;100.00
7832;BME280;3961;42.058;25.586;2022-09-01T00:46:07;64613.16;;;21.06;100.00
7832;BME280;3961;42.058;25.586;2022-09-01T00:48:33;64597.03;;;20.94;100.00
7832;BME280;3961;42.058;25.586;2022-09-01T00:50:59;64599.00;;;20.98;100.00
7832;BME280;3961;42.058;25.586;2022-09-01T00:53:26;64593.38;;;20.96;100.00
7832;BME280;3961;42.058;25.586;2022-09-01T00:55:52;64591.75;;;20.90;100.00
7832;BME280;3961;42.058;25.586;2022-09-01T00:58:18;64587.91;;;20.89;100.00
7832;BME280;3961;42.058;25.586;2022-09-01T01:00:45;64595.50;;;20.95;100.00
7832;BME280;3961;42.058;25.586;2022-09-01T01:03:13;64587.91;;;20.89;100.00
7832;BME280;3961;42.058;25.586;2022-09-01T01:05:45;64590.59;;;20.89;100.00
7832;BME280;3961;42.058;25.586;2022-09-01T01:08:24;64592.56;;;20.93;100.00
7832;BME280;3961;42.058;25.586;2022-09-01T01:11:00;64597.84;;;20.97;100.00
7832;BME280;3961;42.058;25.586;2022-09-01T01:13:26;64585.69;;;20.82;100.00
7832;BME280;3961;42.058;25.586;2022-09-01T01:16:02;64551.91;;;20.60;100.00
7832;BME280;3961;42.058;25.586;2022-09-01T01:18:28;64558.13;;;20.63;100.00
7832;BME280;3961;42.058;25.586;2022-09-01T01:21:03;64568.06;;;20.71;100.00
7832;BME280;3961;42.058;25.586;2022-09-01T01:23:56;64578.13;;;20.75;100.00
7832;BME280;3961;42.058;25.586;2022-09-01T01:26:25;64567.69;;;20.73;100.00
7832;BME280;3961;42.058;25.586;2022-09-01T01:28:51;64568.41;;;20.69;100.00
7832;BME280;3961;42.058;25.586;2022-09-01T01:31:20;64573.44;;;20.71;100.00
7832;BME280;3961;42.058;25.586;2022-09-01T01:33:50;64574.25;;;20.74;100.00
7832;BME280;3961;42.058;25.586;2022-09-01T01:36:26;64564.91;;;20.66;100.00
7832;BME280;3961;42.058;25.586;2022-09-01T01:38:59;64571.56;;;20.74;100.00
7832;BME280;3961;42.058;25.586;2022-09-01T01:41:28;64558.13;;;20.63;100.00
7832;BME280;3961;42.058;25.586;2022-09-01T01:44:02;64582.06;;;20.84;100.00
7832;BME280;3961;42.058;25.586;2022-09-01T01:46:32;64580.31;;;20.82;100.00
7832;BME280;3961;42.058;25.586;2022-09-01T01:51:29;64577.75;;;20.77;100.00
7832;BME280;3961;42.058;25.586;2022-09-01T01:53:58;64586.16;;;20.87;100.00
7832;BME280;3961;42.058;25.586;2022-09-01T01:56:26;64591.19;;;20.89;100.00
7832;BME280;3961;42.058;25.586;2022-09-01T01:58:53;64589.44;;;20.88;100.00
7832;BME280;3961;42.058;25.586;2022-09-01T02:01:28;64582.06;;;20.84;100.00
7832;BME280;3961;42.058;25.586;2022-09-01T02:03:56;64574.69;;;20.79;100.00
7832;BME280;3961;42.058;25.586;2022-09-01T02:06:24;64576.59;;;20.76;100.00
7832;BME280;3961;42.058;25.586;2022-09-01T02:08:54;64573.53;;;20.78;100.00
7832;BME280;3961;42.058;25.586;2022-09-01T02:11:28;64570.16;;;20.71;100.00
7832;BME280;3961;42.058;25.586;2022-09-01T02:13:55;64552.28;;;20.58;100.00
7832;BME280;3961;42.058;25.586;2022-09-01T02:16:27;64542.94;;;20.50;100.00
7832;BME280;3961;42.058;25.586;2022-09-01T02:18:53;64537.69;;;20.45;100.00
7832;BME280;3961;42.058;25.586;2022-09-01T02:21:21;64541.19;;;20.48;100.00
7832;BME280;3961;42.058;25.586;2022-09-01T02:23:52;64525.41;;;20.34;100.00
7832;BME280;3961;42.058;25.586;2022-09-01T02:26:24;64508.34;;;20.24;100.00
7832;BME280;3961;42.058;25.586;2022-09-01T02:28:57;64503.09;;;20.20;100.00
7832;BME280;3961;42.058;25.586;2022-09-01T02:31:23;64501.13;;;20.16;100.00
7832;BME280;3961;42.058;25.586;2022-09-01T02:33:49;64503.22;;;20.15;100.00
7832;BME280;3961;42.058;25.586;2022-09-01T02:36:16;64502.44;;;20.12;100.00
7832;BME280;3961;42.058;25.586;2022-09-01T02:38:44;64509.41;;;20.18;100.00
7832;BME280;3961;42.058;25.586;2022-09-01T02:41:11;64508.25;;;20.17;100.00
7832;BME280;3961;42.058;25.586;2022-09-01T02:43:39;64509.19;;;20.16;100.00
7832;BME280;3961;42.058;25.586;2022-09-01T02:46:05;64503.81;;;20.16;100.00
7832;BME280;3961;42.058;25.586;2022-09-01T02:48:36;64506.13;;;20.18;100.00
7832;BME280;3961;42.058;25.586;2022-09-01T02:51:08;64504.03;;;20.18;100.00
7832;BME280;3961;42.058;25.586;2022-09-01T02:53:34;64502.63;;;20.14;100.00
7832;BME280;3961;42.058;25.586;2022-09-01T02:56:05;64521.47;;;20.26;100.00
7832;BME280;3961;42.058;25.586;2022-09-01T02:58:34;64497.63;;;20.12;100.00
7832;BME280;3961;42.058;25.586;2022-09-01T03:01:18;64490.97;;;20.04;100.00
7832;BME280;3961;42.058;25.586;2022-09-01T03:03:47;64476.97;;;19.92;100.00
7832;BME280;3961;42.058;25.586;2022-09-01T03:06:13;64472.88;;;19.89;100.00
7832;BME280;3961;42.058;25.586;2022-09-01T03:08:39;64418.06;;;19.41;100.00
7832;BME280;3961;42.058;25.586;2022-09-01T03:11:07;64462.59;;;19.82;100.00
7832;BME280;3961;42.058;25.586;2022-09-01T03:13:36;64416.66;;;19.37;100.00
7832;BME280;3961;42.058;25.586;2022-09-01T03:16:02;64474.63;;;19.90;100.00
7832;BME280;3961;42.058;25.586;2022-09-01T03:18:29;64476.75;;;19.90;100.00
7832;BME280;3961;42.058;25.586;2022-09-01T03:20:54;64462.97;;;19.80;100.00
7832;BME280;3961;42.058;25.586;2022-09-01T03:23:20;64456.56;;;19.74;100.00
7832;BME280;3961;42.058;25.586;2022-09-01T03:25:46;64457.16;;;19.75;100.00
7832;BME280;3961;42.058;25.586;2022-09-01T03:28:14;64438.13;;;19.61;100.00
7832;BME280;3961;42.058;25.586;2022-09-01T03:30:46;64432.41;;;19.51;100.00
7832;BME280;3961;42.058;25.586;2022-09-01T03:33:14;64438.47;;;19.59;100.00
7832;BME280;3961;42.058;25.586;2022-09-01T03:35:42;64437.53;;;19.60;100.00
7832;BME280;3961;42.058;25.586;2022-09-01T03:38:10;64437.88;;;19.58;100.00
7832;BME280;3961;42.058;25.586;2022-09-01T03:40:38;64435.31;;;19.54;100.00
7832;BME280;3961;42.058;25.586;2022-09-01T03:43:06;64426.56;;;19.46;100.00
7832;BME280;3961;42.058;25.586;2022-09-01T03:45:36;64424.69;;;19.49;100.00
7832;BME280;3961;42.058;25.586;2022-09-01T03:48:04;64424.81;;;19.44;100.00
7832;BME280;3961;42.058;25.586;2022-09-01T03:50:38;64405.78;;;19.30;100.00
7832;BME280;3961;42.058;25.586;2022-09-01T03:53:14;64437.66;;;19.56;100.00
7832;BME280;3961;42.058;25.586;2022-09-01T03:55:43;64437.31;;;19.58;100.00
7832;BME280;3961;42.058;25.586;2022-09-01T03:58:10;64430.63;;;19.50;100.00
7832;BME280;3961;42.058;25.586;2022-09-01T04:00:42;64434.97;;;19.56;100.00
7832;BME280;3961;42.058;25.586;2022-09-01T04:03:10;64440.22;;;19.60;100.00
7832;BME280;3961;42.058;25.586;2022-09-01T04:05:38;64449.34;;;19.66;100.00
7832;BME280;3961;42.058;25.586;2022-09-01T04:08:07;64448.53;;;19.63;100.00
7832;BME280;3961;42.058;25.586;2022-09-01T04:10:41;64446.88;;;19.68;100.00
7832;BME280;3961;42.058;25.586;2022-09-01T04:13:10;64455.53;;;19.69;100.00
7832;BME280;3961;42.058;25.586;2022-09-01T04:15:37;64450.16;;;19.69;100.00
7832;BME280;3961;42.058;25.586;2022-09-01T04:18:03;64469.97;;;19.86;100.00
7832;BME280;3961;42.058;25.586;2022-09-01T04:20:35;64494.13;;;20.09;100.00
7832;BME280;3961;42.058;25.586;2022-09-01T04:23:30;64519.78;;;20.32;100.00
7832;BME280;3961;42.058;25.586;2022-09-01T04:26:07;64569.44;;;20.75;100.00
7832;BME280;3961;42.058;25.586;2022-09-01T04:28:52;64584.38;;;20.86;100.00
7832;BME280;3961;42.058;25.586;2022-09-01T04:31:21;64639.69;;;21.31;100.00
7832;BME280;3961;42.058;25.586;2022-09-01T04:33:49;64663.06;;;21.52;100.00
7832;BME280;3961;42.058;25.586;2022-09-01T04:36:19;64700.09;;;21.86;100.00
7832;BME280;3961;42.058;25.586;2022-09-01T04:38:51;64728.78;;;22.11;100.00
7832;BME280;3961;42.058;25.586;2022-09-01T04:41:26;64763.66;;;22.39;100.00
7832;BME280;3961;42.058;25.586;2022-09-01T04:43:56;64789.25;;;22.66;100.00
7832;BME280;3961;42.058;25.586;2022-09-01T04:46:24;64812.59;;;22.79;100.00
7832;BME280;3961;42.058;25.586;2022-09-01T04:48:54;64846.75;;;23.11;100.00
7832;BME280;3961;42.058;25.586;2022-09-01T04:51:20;64842.66;;;23.07;100.00
7832;BME280;3961;42.058;25.586;2022-09-01T04:53:46;64841.13;;;23.08;100.00
7832;BME280;3961;42.058;25.586;2022-09-01T04:56:17;64852.03;;;23.16;100.00
7832;BME280;3961;42.058;25.586;2022-09-01T04:58:45;64811.88;;;22.83;100.00
7832;BME280;3961;42.058;25.586;2022-09-01T05:01:16;64819.47;;;22.90;100.00
7832;BME280;3961;42.058;25.586;2022-09-01T05:03:42;64808.72;;;22.78;100.00
7832;BME280;3961;42.058;25.586;2022-09-01T05:06:18;64791.38;;;22.65;100.00
7832;BME280;3961;42.058;25.586;2022-09-01T05:08:44;64775.34;;;22.49;100.00
7832;BME280;3961;42.058;25.586;2022-09-01T05:11:13;64752.75;;;22.32;100.00
7832;BME280;3961;42.058;25.586;2022-09-01T05:13:48;64744.78;;;22.27;100.00
7832;BME280;3961;42.058;25.586;2022-09-01T05:16:16;64768.31;;;22.43;100.00
7832;BME280;3961;42.058;25.586;2022-09-01T05:18:45;64753.34;;;22.32;100.00
7832;BME280;3961;42.058;25.586;2022-09-01T05:21:17;64787.28;;;22.62;100.00
7832;BME280;3961;42.058;25.586;2022-09-01T05:23:44;64803.22;;;22.71;100.00
7832;BME280;3961;42.058;25.586;2022-09-01T05:26:17;64785.53;;;22.60;100.00
7832;BME280;3961;42.058;25.586;2022-09-01T05:28:44;64752.97;;;22.34;100.00
7832;BME280;3961;42.058;25.586;2022-09-01T05:31:10;64774.53;;;22.46;100.00
7832;BME280;3961;42.058;25.586;2022-09-01T05:33:37;64782.94;;;22.56;100.00
7832;BME280;3961;42.058;25.586;2022-09-01T05:36:09;64755.59;;;22.27;100.00
7832;BME280;3961;42.058;25.586;2022-09-01T05:38:36;64784.13;;;22.57;100.00
7832;BME280;3961;42.058;25.586;2022-09-01T05:41:03;64803.44;;;22.73;100.00
7832;BME280;3961;42.058;25.586;2022-09-01T05:43:33;64780.84;;;22.56;100.00
7832;BME280;3961;42.058;25.586;2022-09-01T05:46:00;64774.16;;;22.48;100.00
7832;BME280;3961;42.058;25.586;2022-09-01T05:48:28;64787.84;;;22.62;100.00
7832;BME280;3961;42.058;25.586;2022-09-01T05:50:57;64784.13;;;22.57;100.00
7832;BME280;3961;42.058;25.586;2022-09-01T05:53:24;64801.69;;;22.72;97.17
7832;BME280;3961;42.058;25.586;2022-09-01T05:55:51;64818.31;;;22.89;100.00
7832;BME280;3961;42.058;25.586;2022-09-01T05:58:24;64860.22;;;23.23;95.24
7832;BME280;3961;42.058;25.586;2022-09-01T06:00:51;64872.53;;;23.33;97.16
7832;BME280;3961;42.058;25.586;2022-09-01T06:03:19;64853.41;;;23.19;97.99
7832;BME280;3961;42.058;25.586;2022-09-01T06:05:46;64843.81;;;23.08;99.82
7832;BME280;3961;42.058;25.586;2022-09-01T06:08:23;64844.41;;;23.09;99.38
7832;BME280;3961;42.058;25.586;2022-09-01T06:10:50;64870.19;;;23.31;96.41
7832;BME280;3961;42.058;25.586;2022-09-01T06:13:17;64877.81;;;23.38;98.46
7832;BME280;3961;42.058;25.586;2022-09-01T06:15:49;64894.66;;;23.57;98.23
7832;BME280;3961;42.058;25.586;2022-09-01T06:18:18;64916.47;;;23.71;95.65
7832;BME280;3961;42.058;25.586;2022-09-01T06:20:46;64919.59;;;23.76;95.90
7832;BME280;3961;42.058;25.586;2022-09-01T06:23:13;64935.78;;;23.88;94.89
7832;BME280;3961;42.058;25.586;2022-09-01T06:25:43;64918.22;;;23.73;96.53
7832;BME280;3961;42.058;25.586;2022-09-01T06:28:17;64919.97;;;23.74;95.53
7832;BME280;3961;42.058;25.586;2022-09-01T06:30:44;64943.41;;;23.95;91.18
7832;BME280;3961;42.058;25.586;2022-09-01T06:33:12;64958.63;;;24.08;92.38
7832;BME280;3961;42.058;25.586;2022-09-01T06:35:43;64972.72;;;24.20;90.34
7832;BME280;3961;42.058;25.586;2022-09-01T06:38:12;64968.25;;;24.19;93.72
7832;BME280;3961;42.058;25.586;2022-09-01T06:40:39;64968.59;;;24.17;95.09
7832;BME280;3961;42.058;25.586;2022-09-01T06:43:07;64978.22;;;24.27;93.48
7832;BME280;3961;42.058;25.586;2022-09-01T06:45:44;64986.44;;;24.34;94.53
7832;BME280;3961;42.058;25.586;2022-09-01T06:48:14;64989.94;;;24.37;93.27
7832;BME280;3961;42.058;25.586;2022-09-01T06:50:41;64999.09;;;24.43;90.29
7832;BME280;3961;42.058;25.586;2022-09-01T06:53:08;65009.28;;;24.54;93.17
7832;BME280;3961;42.058;25.586;2022-09-01T06:55:41;65020.22;;;24.61;92.89
7832;BME280;3961;42.058;25.586;2022-09-01T06:58:09;65029.56;;;24.69;92.56
7832;BME280;3961;42.058;25.586;2022-09-01T07:00:40;65047.19;;;24.85;91.82
7832;BME280;3961;42.058;25.586;2022-09-01T07:03:10;65029.78;;;24.72;93.08
7832;BME280;3961;42.058;25.586;2022-09-01T07:05:43;65029.56;;;24.69;92.87
7832;BME280;3961;42.058;25.586;2022-09-01T07:08:11;65058.31;;;24.94;92.03
7832;BME280;3961;42.058;25.586;2022-09-01T07:10:42;65091.19;;;25.23;91.25
7832;BME280;3961;42.058;25.586;2022-09-01T07:13:14;65094.13;;;25.25;89.65
7832;BME280;3961;42.058;25.586;2022-09-01T07:15:45;65113.25;;;25.39;89.64
7832;BME280;3961;42.058;25.586;2022-09-01T07:18:19;65110.53;;;25.39;90.32
7832;BME280;3961;42.058;25.586;2022-09-01T07:20:46;65107.59;;;25.37;88.69
7832;BME280;3961;42.058;25.586;2022-09-01T07:23:14;65134.25;;;25.62;89.00
7832;BME280;3961;42.058;25.586;2022-09-01T07:25:43;65144.22;;;25.71;86.32
7832;BME280;3961;42.058;25.586;2022-09-01T07:28:11;65177.28;;;25.95;85.29
7832;BME280;3961;42.058;25.586;2022-09-01T07:30:48;65199.19;;;26.16;83.88
7832;BME280;3961;42.058;25.586;2022-09-01T07:33:17;65198.81;;;26.18;84.30
7832;BME280;3961;42.058;25.586;2022-09-01T07:35:45;65242.47;;;26.51;83.18
7832;BME280;3961;42.058;25.586;2022-09-01T07:38:11;65255.22;;;26.67;82.39
7832;BME280;3961;42.058;25.586;2022-09-01T07:40:40;65283.81;;;26.89;79.65
7832;BME280;3961;42.058;25.586;2022-09-01T07:43:25;65276.97;;;26.86;80.15
7832;BME280;3961;42.058;25.586;2022-09-01T07:45:55;65321.44;;;27.22;78.23
7832;BME280;3961;42.058;25.586;2022-09-01T07:48:25;65312.84;;;27.17;78.80
7832;BME280;3961;42.058;25.586;2022-09-01T07:50:54;65306.16;;;27.08;78.67
7832;BME280;3961;42.058;25.586;2022-09-01T07:53:29;65356.50;;;27.50;77.77
7832;BME280;3961;42.058;25.586;2022-09-01T07:56:03;65370.81;;;27.64;77.13
7832;BME280;3961;42.058;25.586;2022-09-01T07:58:32;65415.31;;;28.00;74.93
7832;BME280;3961;42.058;25.586;2022-09-01T08:00:59;65418.25;;;28.03;74.44
7832;BME280;3961;42.058;25.586;2022-09-01T08:03:28;65444.19;;;28.25;73.29
7832;BME280;3961;42.058;25.586;2022-09-01T08:05:54;65448.88;;;28.29;71.44
7832;BME280;3961;42.058;25.586;2022-09-01T08:08:25;65473.00;;;28.50;71.38
7832;BME280;3961;42.058;25.586;2022-09-01T08:10:51;65494.25;;;28.75;69.90
7832;BME280;3961;42.058;25.586;2022-09-01T08:13:18;65503.03;;;28.76;69.34
7832;BME280;3961;42.058;25.586;2022-09-01T08:15:43;65508.78;;;28.86;68.69
7832;BME280;3961;42.058;25.586;2022-09-01T08:18:09;65503.03;;;28.76;67.53
7832;BME280;3961;42.058;25.586;2022-09-01T08:20:38;65514.84;;;28.86;67.41
7832;BME280;3961;42.058;25.586;2022-09-01T08:23:06;65540.13;;;29.08;66.68
7832;BME280;3961;42.058;25.586;2022-09-01T08:25:34;65536.81;;;29.07;66.61
7832;BME280;3961;42.058;25.586;2022-09-01T08:28:01;65538.97;;;29.07;66.94
7832;BME280;3961;42.058;25.586;2022-09-01T08:30:27;65494.63;;;28.73;67.52
7832;BME280;3961;42.058;25.586;2022-09-01T08:32:54;65486.53;;;28.62;67.77
7832;BME280;3961;42.058;25.586;2022-09-01T08:35:19;65531.50;;;29.03;66.69
7832;BME280;3961;42.058;25.586;2022-09-01T08:37:45;65540.56;;;29.13;65.73
7832;BME280;3961;42.058;25.586;2022-09-01T08:40:13;65521.88;;;28.92;66.16
7832;BME280;3961;42.058;25.586;2022-09-01T08:45:47;65539.97;;;29.13;66.38
7832;BME280;3961;42.058;25.586;2022-09-01T08:48:20;65557.81;;;29.23;65.71
7832;BME280;3961;42.058;25.586;2022-09-01T08:51:03;65558.00;;;29.26;65.57
7832;BME280;3961;42.058;25.586;2022-09-01T08:53:37;65560.38;;;29.28;65.38
7832;BME280;3961;42.058;25.586;2022-09-01T08:56:08;65589.84;;;29.53;64.88
7832;BME280;3961;42.058;25.586;2022-09-01T08:58:35;65599.47;;;29.64;64.18
7832;BME280;3961;42.058;25.586;2022-09-01T09:01:08;65623.44;;;29.82;63.46
7832;BME280;3961;42.058;25.586;2022-09-01T09:09:17;65644.06;;;30.00;62.42
7832;BME280;3961;42.058;25.586;2022-09-01T09:16:55;65642.91;;;29.99;60.30
7832;BME280;3961;42.058;25.586;2022-09-01T09:19:29;65666.66;;;30.22;58.45
7832;BME280;3961;42.058;25.586;2022-09-01T09:21:58;65671.59;;;30.21;58.49
7832;BME280;3961;42.058;25.586;2022-09-01T09:27:30;65687.47;;;30.35;58.75
7832;BME280;3961;42.058;25.586;2022-09-01T09:30:27;65716.97;;;30.60;58.37
7832;BME280;3961;42.058;25.586;2022-09-01T09:32:55;65735.28;;;30.76;57.97
7832;BME280;3961;42.058;25.586;2022-09-01T09:35:44;65711.66;;;30.56;57.42
7832;BME280;3961;42.058;25.586;2022-09-01T09:41:00;65701.84;;;30.50;56.14
7832;BME280;3961;42.058;25.586;2022-09-01T09:43:28;65716.41;;;30.60;57.32
7832;BME280;3961;42.058;25.586;2022-09-01T09:46:24;65701.06;;;30.47;55.85
7832;BME280;3961;42.058;25.586;2022-09-01T09:51:38;65718.38;;;30.64;54.29
7832;BME280;3961;42.058;25.586;2022-09-01T09:54:31;65737.63;;;30.78;52.94
7832;BME280;3961;42.058;25.586;2022-09-01T10:04:42;65792.50;;;31.25;49.15
7832;BME280;3961;42.058;25.586;2022-09-01T10:07:28;65812.81;;;31.45;49.02
7832;BME280;3961;42.058;25.586;2022-09-01T10:09:57;65822.81;;;31.54;49.79
7832;BME280;3961;42.058;25.586;2022-09-01T10:12:25;65849.22;;;31.74;47.95
7832;BME280;3961;42.058;25.586;2022-09-01T10:15:04;65846.63;;;31.69;47.93
7832;BME280;3961;42.058;25.586;2022-09-01T10:17:34;65874.59;;;31.96;48.14
7832;BME280;3961;42.058;25.586;2022-09-01T10:20:21;65889.56;;;32.11;48.57
7832;BME280;3961;42.058;25.586;2022-09-01T10:22:47;65835.44;;;31.67;49.53
7832;BME280;3961;42.058;25.586;2022-09-01T10:25:20;65830.09;;;31.62;49.56
7832;BME280;3961;42.058;25.586;2022-09-01T10:27:52;65852.38;;;31.79;50.26
7832;BME280;3961;42.058;25.586;2022-09-01T10:30:22;65880.69;;;32.03;48.37
7832;BME280;3961;42.058;25.586;2022-09-01T10:35:29;65898.41;;;32.19;48.49
7832;BME280;3961;42.058;25.586;2022-09-01T10:38:02;65916.53;;;32.32;48.23
7832;BME280;3961;42.058;25.586;2022-09-01T10:40:40;65870.06;;;31.94;48.72
7832;BME280;3961;42.058;25.586;2022-09-01T10:48:35;65861.78;;;31.87;47.19
7832;BME280;3961;42.058;25.586;2022-09-01T10:53:39;65889.94;;;32.09;47.16
7832;BME280;3961;42.058;25.586;2022-09-01T10:56:19;65906.69;;;32.26;46.99
7832;BME280;3961;42.058;25.586;2022-09-01T10:59:23;65923.03;;;32.37;46.69
7832;BME280;3961;42.058;25.586;2022-09-01T11:07:04;65888.38;;;32.10;45.53
7832;BME280;3961;42.058;25.586;2022-09-01T11:09:37;65860.63;;;31.86;44.22
7832;BME280;3961;42.058;25.586;2022-09-01T11:12:16;65852.97;;;31.80;44.60
7832;BME280;3961;42.058;25.586;2022-09-01T11:14:48;65813.81;;;31.51;45.37
7832;BME280;3961;42.058;25.586;2022-09-01T11:17:25;65882.25;;;32.02;45.25
7832;BME280;3961;42.058;25.586;2022-09-01T11:23:09;65922.25;;;32.34;43.51
7832;BME280;3961;42.058;25.586;2022-09-01T11:26:02;65922.44;;;32.37;43.02
7832;BME280;3961;42.058;25.586;2022-09-01T11:28:47;65942.72;;;32.57;43.22
7832;BME280;3961;42.058;25.586;2022-09-01T11:31:26;65906.69;;;32.26;45.17
7832;BME280;3961;42.058;25.586;2022-09-01T11:41:55;65936.22;;;32.51;44.60
7832;BME280;3961;42.058;25.586;2022-09-01T11:44:31;65933.28;;;32.49;45.02
7832;BME280;3961;42.058;25.586;2022-09-01T11:47:07;65950.81;;;32.61;44.70
7832;BME280;3961;42.058;25.586;2022-09-01T11:49:38;65929.16;;;32.45;44.79
7832;BME280;3961;42.058;25.586;2022-09-01T11:52:05;65949.63;;;32.60;43.64
7832;BME280;3961;42.058;25.586;2022-09-01T11:54:41;65949.81;;;32.63;43.21
7832;BME280;3961;42.058;25.586;2022-09-01T11:57:37;65955.13;;;32.60;42.91
7832;BME280;3961;42.058;25.586;2022-09-01T12:00:07;65956.91;;;32.69;42.64
7832;BME280;3961;42.058;25.586;2022-09-01T12:02:42;65948.03;;;32.54;43.55
7832;BME280;3961;42.058;25.586;2022-09-01T12:05:25;65962.63;;;32.71;43.34
7832;BME280;3961;42.058;25.586;2022-09-01T12:07:51;65976.81;;;32.84;43.00
7832;BME280;3961;42.058;25.586;2022-09-01T12:10:28;65971.69;;;32.82;43.47
7832;BME280;3961;42.058;25.586;2022-09-01T12:13:09;65985.09;;;32.91;42.69
7832;BME280;3961;42.058;25.586;2022-09-01T12:15:37;65977.03;;;32.86;42.71
7832;BME280;3961;42.058;25.586;2022-09-01T12:20:38;65993.97;;;32.98;41.42
7832;BME280;3961;42.058;25.586;2022-09-01T12:23:17;65934.47;;;32.50;41.79
7832;BME280;3961;42.058;25.586;2022-09-01T12:25:43;65943.72;;;32.55;42.42
7832;BME280;3961;42.058;25.586;2022-09-01T12:28:09;65939.78;;;32.54;42.59
7832;BME280;3961;42.058;25.586;2022-09-01T12:30:37;65942.91;;;32.52;41.26
7832;BME280;3961;42.058;25.586;2022-09-01T12:33:06;65938.00;;;32.53;42.12
7832;BME280;3961;42.058;25.586;2022-09-01T12:35:34;65946.28;;;32.60;42.43
7832;BME280;3961;42.058;25.586;2022-09-01T12:40:46;65963.06;;;32.77;42.55
7832;BME280;3961;42.058;25.586;2022-09-01T12:43:31;65965.00;;;32.73;42.68
7832;BME280;3961;42.058;25.586;2022-09-01T12:45:57;65967.59;;;32.78;42.28
7832;BME280;3961;42.058;25.586;2022-09-01T12:48:27;65987.47;;;32.93;41.05
7832;BME280;3961;42.058;25.586;2022-09-01T12:50:54;65980.38;;;32.87;42.58
7832;BME280;3961;42.058;25.586;2022-09-01T12:53:23;66006.00;;;33.11;43.17
7832;BME280;3961;42.058;25.586;2022-09-01T12:55:59;66021.53;;;33.20;42.57
7832;BME280;3961;42.058;25.586;2022-09-01T12:58:27;66033.22;;;33.34;42.07
7832;BME280;3961;42.058;25.586;2022-09-01T13:01:01;66030.84;;;33.32;41.59
7832;BME280;3961;42.058;25.586;2022-09-01T13:03:28;65972.09;;;32.80;39.96
7832;BME280;3961;42.058;25.586;2022-09-01T13:05:58;65996.53;;;33.03;40.83
7832;BME280;3961;42.058;25.586;2022-09-01T13:08:31;65974.44;;;32.82;41.30
7832;BME280;3961;42.058;25.586;2022-09-01T13:11:03;65964.41;;;32.73;41.74
7832;BME280;3961;42.058;25.586;2022-09-01T13:13:29;65951.59;;;32.64;42.22
7832;BME280;3961;42.058;25.586;2022-09-01T13:15:57;65954.34;;;32.64;42.96
7832;BME280;3961;42.058;25.586;2022-09-01T13:18:32;65953.38;;;32.66;42.74
7832;BME280;3961;42.058;25.586;2022-09-01T13:20:59;65962.84;;;32.74;43.09
7832;BME280;3961;42.058;25.586;2022-09-01T13:23:25;65954.56;;;32.67;43.05
7832;BME280;3961;42.058;25.586;2022-09-01T13:25:51;65955.31;;;32.63;43.05
7832;BME280;3961;42.058;25.586;2022-09-01T13:28:17;65920.88;;;32.38;43.57
7832;BME280;3961;42.058;25.586;2022-09-01T13:30:48;65938.81;;;32.56;42.44
7832;BME280;3961;42.058;25.586;2022-09-01T13:33:17;65903.16;;;32.23;42.39
7832;BME280;3961;42.058;25.586;2022-09-01T13:35:43;65926.97;;;32.38;42.61
7832;BME280;3961;42.058;25.586;2022-09-01T13:38:09;65939.97;;;32.50;42.02
7832;BME280;3961;42.058;25.586;2022-09-01T13:40:34;65937.03;;;32.47;42.10
7832;BME280;3961;42.058;25.586;2022-09-01T13:43:00;65929.94;;;32.41;41.67
7832;BME280;3961;42.058;25.586;2022-09-01T13:45:26;65938.38;;;32.51;42.98
7832;BME280;3961;42.058;25.586;2022-09-01T13:47:52;65924.59;;;32.36;43.29
7832;BME280;3961;42.058;25.586;2022-09-01T13:50:20;65904.72;;;32.22;44.06
7832;BME280;3961;42.058;25.586;2022-09-01T13:52:54;65908.25;;;32.25;44.52
7832;BME280;3961;42.058;25.586;2022-09-01T13:55:23;65915.16;;;32.28;43.44
7832;BME280;3961;42.058;25.586;2022-09-01T13:57:49;65906.69;;;32.26;43.86
7832;BME280;3961;42.058;25.586;2022-09-01T14:00:21;65899.59;;;32.20;44.29
7832;BME280;3961;42.058;25.586;2022-09-01T14:02:51;65911.22;;;32.27;43.90
7832;BME280;3961;42.058;25.586;2022-09-01T14:05:32;65928.75;;;32.40;43.91
7832;BME280;3961;42.058;25.586;2022-09-01T14:07:59;65934.88;;;32.48;43.94
7832;BME280;3961;42.058;25.586;2022-09-01T14:10:27;65926.00;;;32.40;43.42
7832;BME280;3961;42.058;25.586;2022-09-01T14:12:54;65905.91;;;32.23;43.66
7832;BME280;3961;42.058;25.586;2022-09-01T14:15:20;65946.06;;;32.57;43.33
7832;BME280;3961;42.058;25.586;2022-09-01T14:17:49;65935.03;;;32.43;45.03
7832;BME280;3961;42.058;25.586;2022-09-01T14:20:22;65917.72;;;32.33;45.00
7832;BME280;3961;42.058;25.586;2022-09-01T14:22:48;65912.19;;;32.26;44.56
7832;BME280;3961;42.058;25.586;2022-09-01T14:25:16;65912.78;;;32.26;45.23
7832;BME280;3961;42.058;25.586;2022-09-01T14:27:42;65877.53;;;31.98;46.48